createdAt,value
2023-05-19T00:01:17.897Z,102867.75
2023-05-19T00:03:57.606Z,102872.25
2023-05-19T00:06:26.784Z,102872.59
2023-05-19T00:09:09.479Z,102868.44
2023-05-19T00:11:37.989Z,102866.91
2023-05-19T00:14:10.579Z,102871.44
2023-05-19T00:16:40.542Z,102869.84
2023-05-19T00:19:10.373Z,102865.63
2023-05-19T00:21:40.804Z,102860.38
2023-05-19T00:24:07.550Z,102856.69
2023-05-19T00:26:34.162Z,102851.41
2023-05-19T00:29:01.024Z,102847.13
2023-05-19T00:31:27.705Z,102850.00
2023-05-19T00:33:55.550Z,102854.59
2023-05-19T00:36:23.290Z,102852.16
2023-05-19T00:38:51.346Z,102848.81
2023-05-19T00:41:18.144Z,102840.34
2023-05-19T00:43:44.959Z,102844.00
2023-05-19T00:46:11.680Z,102849.53
2023-05-19T00:48:38.245Z,102840.88
2023-05-19T00:51:06.718Z,102848.88
2023-05-19T00:53:34.798Z,102847.13
2023-05-19T00:56:02.930Z,102846.25
2023-05-19T00:58:31.250Z,102841.06
2023-05-19T01:01:03.835Z,102841.97
2023-05-19T01:03:36.307Z,102842.09
2023-05-19T01:06:07.975Z,102850.97
2023-05-19T01:08:37.419Z,102843.16
2023-05-19T01:11:08.310Z,102853.66
2023-05-19T01:13:36.949Z,102853.72
2023-05-19T01:16:18.376Z,102846.84
2023-05-19T01:18:57.221Z,102848.63
2023-05-19T01:21:36.482Z,102855.66
2023-05-19T01:24:34.028Z,102855.50
2023-05-19T01:27:34.605Z,102852.97
2023-05-19T01:30:26.184Z,102849.66
2023-05-19T01:33:01.875Z,102844.59
2023-05-19T01:35:29.918Z,102837.75
2023-05-19T01:37:58.454Z,102836.25
2023-05-19T01:40:26.669Z,102836.41
2023-05-19T01:42:57.316Z,102838.25
2023-05-19T01:45:25.823Z,102833.91
2023-05-19T01:47:55.602Z,102830.47
2023-05-19T01:50:22.736Z,102837.53
2023-05-19T01:52:49.563Z,102835.63
2023-05-19T01:55:16.226Z,102830.63
2023-05-19T01:57:55.713Z,102829.97
2023-05-19T02:00:33.851Z,102824.81
2023-05-19T02:03:15.560Z,102822.25
2023-05-19T02:06:06.845Z,102826.66
2023-05-19T02:08:54.689Z,102824.19
2023-05-19T02:11:40.085Z,102832.03
2023-05-19T02:14:09.089Z,102823.44
2023-05-19T02:16:37.240Z,102830.47
2023-05-19T02:19:03.842Z,102826.31
2023-05-19T02:21:33.230Z,102826.47
2023-05-19T02:23:59.860Z,102821.28
2023-05-19T02:26:26.996Z,102821.50
2023-05-19T02:28:53.538Z,102815.53
2023-05-19T02:31:20.196Z,102818.25
2023-05-19T02:33:46.834Z,102820.88
2023-05-19T02:36:14.590Z,102819.09
2023-05-19T02:38:41.178Z,102810.34
2023-05-19T02:41:07.848Z,102813.78
2023-05-19T02:43:34.543Z,102805.94
2023-05-19T02:46:03.823Z,102806.88
2023-05-19T02:48:40.093Z,102801.78
2023-05-19T02:51:18.679Z,102801.91
2023-05-19T02:53:48.502Z,102804.63
2023-05-19T02:56:15.071Z,102802.00
2023-05-19T02:58:43.161Z,102798.34
2023-05-19T03:01:10.137Z,102796.53
2023-05-19T03:03:36.872Z,102793.78
2023-05-19T03:06:08.696Z,102795.56
2023-05-19T03:08:36.350Z,102789.63
2023-05-19T03:11:03.463Z,102787.25
2023-05-19T03:13:29.982Z,102784.75
2023-05-19T03:16:00.842Z,102786.50
2023-05-19T03:18:27.681Z,102790.97
2023-05-19T03:20:54.257Z,102791.88
2023-05-19T03:23:24.460Z,102787.72
2023-05-19T03:25:51.016Z,102788.78
2023-05-19T03:28:17.829Z,102787.13
2023-05-19T03:30:44.458Z,102787.19
2023-05-19T03:33:11.462Z,102790.69
2023-05-19T03:35:38.221Z,102792.56
2023-05-19T03:38:04.684Z,102790.00
2023-05-19T03:40:31.276Z,102791.00
2023-05-19T03:42:58.129Z,102784.81
2023-05-19T03:45:24.698Z,102789.13
2023-05-19T03:47:51.376Z,102783.06
2023-05-19T03:50:21.198Z,102781.34
2023-05-19T03:52:48.954Z,102788.22
2023-05-19T03:55:20.270Z,102784.63
2023-05-19T03:57:47.438Z,102786.34
2023-05-19T04:00:14.428Z,102789.72
2023-05-19T04:02:41.654Z,102789.81
2023-05-19T04:05:08.580Z,102788.16
2023-05-19T04:07:38.075Z,102792.50
2023-05-19T04:10:05.838Z,102788.91
2023-05-19T04:12:33.078Z,102787.03
2023-05-19T04:14:59.854Z,102788.63
2023-05-19T04:17:27.688Z,102788.63
2023-05-19T04:19:54.660Z,102790.19
2023-05-19T04:22:21.330Z,102789.13
2023-05-19T04:24:48.762Z,102791.47
2023-05-19T04:27:16.658Z,102786.88
2023-05-19T04:29:43.702Z,102804.91
2023-05-19T04:32:10.767Z,102799.28
2023-05-19T04:34:40.425Z,102797.16
2023-05-19T04:37:07.761Z,102796.94
2023-05-19T04:39:34.595Z,102787.03
2023-05-19T04:42:02.699Z,102795.59
2023-05-19T04:44:30.125Z,102796.47
2023-05-19T04:46:58.333Z,102799.84
2023-05-19T04:49:24.935Z,102792.50
2023-05-19T04:51:55.580Z,102795.59
2023-05-19T04:54:24.993Z,102800.47
2023-05-19T04:56:51.498Z,102799.16
2023-05-19T04:59:18.129Z,102799.69
2023-05-19T05:01:44.761Z,102810.47
2023-05-19T05:04:11.498Z,102805.31
2023-05-19T05:06:42.559Z,102808.59
2023-05-19T05:09:10.756Z,102803.19
2023-05-19T05:11:37.574Z,102803.97
2023-05-19T05:14:04.400Z,102808.66
2023-05-19T05:16:31.993Z,102803.47
2023-05-19T05:18:58.861Z,102807.19
2023-05-19T05:21:27.434Z,102804.81
2023-05-19T05:23:54.368Z,102800.56
2023-05-19T05:26:28.603Z,102806.34
2023-05-19T05:28:55.257Z,102806.88
2023-05-19T05:31:21.716Z,102805.19
2023-05-19T05:33:48.386Z,102806.47
2023-05-19T05:36:15.065Z,102798.25
2023-05-19T05:38:41.634Z,102803.16
2023-05-19T05:41:12.676Z,102802.06
2023-05-19T05:43:39.189Z,102798.19
2023-05-19T05:46:05.821Z,102794.91
2023-05-19T05:48:32.631Z,102805.41
2023-05-19T05:50:59.579Z,102802.41
2023-05-19T05:53:30.887Z,102813.53
2023-05-19T05:55:58.053Z,102810.97
2023-05-19T05:58:24.579Z,102809.31
2023-05-19T06:00:53.035Z,102808.06
2023-05-19T06:03:24.539Z,102810.53
2023-05-19T06:05:51.572Z,102809.38
2023-05-19T06:08:18.269Z,102813.34
2023-05-19T06:10:47.241Z,102806.34
2023-05-19T06:13:21.706Z,102809.59
2023-05-19T06:15:48.234Z,102808.75
2023-05-19T06:18:17.551Z,102818.88
2023-05-19T06:20:46.965Z,102807.50
2023-05-19T06:23:13.813Z,102808.09
2023-05-19T06:25:40.408Z,102813.91
2023-05-19T06:28:06.940Z,102813.63
2023-05-19T06:30:33.809Z,102800.38
2023-05-19T06:33:00.918Z,102801.56
2023-05-19T06:35:27.682Z,102806.78
2023-05-19T06:37:56.848Z,102803.50
2023-05-19T06:40:23.808Z,102801.16
2023-05-19T06:42:50.542Z,102795.41
2023-05-19T06:45:21.781Z,102805.41
2023-05-19T06:47:49.207Z,102804.78
2023-05-19T06:50:15.910Z,102799.59
2023-05-19T06:52:42.900Z,102804.50
2023-05-19T06:55:09.649Z,102800.97
2023-05-19T06:57:38.307Z,102800.50
2023-05-19T07:00:06.712Z,102802.19
2023-05-19T07:02:33.388Z,102809.81
2023-05-19T07:05:00.044Z,102802.50
2023-05-19T07:07:26.794Z,102812.59
2023-05-19T07:09:53.355Z,102811.56
2023-05-19T07:12:20.228Z,102804.22
2023-05-19T07:14:46.873Z,102798.97
2023-05-19T07:17:13.382Z,102802.34
2023-05-19T07:19:45.325Z,102798.72
2023-05-19T07:22:11.972Z,102799.03
2023-05-19T07:24:38.586Z,102799.03
2023-05-19T07:27:05.584Z,102802.06
2023-05-19T07:29:32.322Z,102798.81
2023-05-19T07:31:58.912Z,102802.13
2023-05-19T07:34:25.595Z,102808.16
2023-05-19T07:36:52.264Z,102804.28
2023-05-19T07:39:19.405Z,102807.47
2023-05-19T07:41:52.620Z,102804.22
2023-05-19T07:44:21.621Z,102805.19
2023-05-19T07:46:50.579Z,102799.84
2023-05-19T07:49:17.247Z,102797.44
2023-05-19T07:51:43.999Z,102800.59
2023-05-19T07:54:10.626Z,102800.69
2023-05-19T07:56:37.422Z,102795.91
2023-05-19T07:59:04.581Z,102791.47
2023-05-19T08:01:32.400Z,102788.34
2023-05-19T08:03:59.238Z,102789.94
2023-05-19T08:06:26.213Z,102785.06
2023-05-19T08:08:54.276Z,102780.91
2023-05-19T08:11:21.384Z,102786.69
2023-05-19T08:13:51.134Z,102775.66
2023-05-19T08:16:17.861Z,102787.28
2023-05-19T08:18:44.481Z,102779.94
2023-05-19T08:21:13.505Z,102780.13
2023-05-19T08:23:40.062Z,102774.84
2023-05-19T08:26:06.682Z,102765.41
2023-05-19T08:28:33.332Z,102767.03
2023-05-19T08:30:59.864Z,102765.94
2023-05-19T08:33:26.428Z,102765.13
2023-05-19T08:35:53.007Z,102762.47
2023-05-19T08:38:19.542Z,102756.56
2023-05-19T08:40:48.196Z,102752.56
2023-05-19T08:43:14.886Z,102758.88
2023-05-19T08:45:46.448Z,102756.88
2023-05-19T08:48:14.486Z,102746.31
2023-05-19T08:50:44.785Z,102749.47
2023-05-19T08:53:31.814Z,102749.81
2023-05-19T08:56:09.999Z,102734.22
2023-05-19T08:58:39.759Z,102737.31
2023-05-19T09:01:07.845Z,102733.94
2023-05-19T09:03:39.326Z,102736.03
2023-05-19T09:06:08.803Z,102733.78
2023-05-19T09:08:37.473Z,102734.19
2023-05-19T09:11:04.204Z,102740.41
2023-05-19T09:13:31.332Z,102729.22
2023-05-19T09:15:58.540Z,102726.41
2023-05-19T09:18:26.478Z,102729.84
2023-05-19T09:21:00.966Z,102722.25
2023-05-19T09:23:30.677Z,102728.50
2023-05-19T09:25:57.540Z,102726.88
2023-05-19T09:28:30.481Z,102721.81
2023-05-19T09:31:07.354Z,102721.34
2023-05-19T09:33:45.619Z,102727.44
2023-05-19T09:36:12.873Z,102719.13
2023-05-19T09:38:39.873Z,102722.09
2023-05-19T09:41:07.330Z,102719.66
2023-05-19T09:43:35.206Z,102722.97
2023-05-19T09:46:11.237Z,102721.31
2023-05-19T09:48:39.587Z,102715.16
2023-05-19T09:51:08.285Z,102721.59
2023-05-19T09:53:38.893Z,102715.59
2023-05-19T09:56:06.270Z,102713.19
2023-05-19T09:58:36.998Z,102714.88
2023-05-19T10:01:04.704Z,102714.63
2023-05-19T10:03:33.045Z,102713.06
2023-05-19T10:06:02.197Z,102708.25
2023-05-19T10:08:30.621Z,102705.03
2023-05-19T10:10:57.822Z,102710.53
2023-05-19T10:13:25.515Z,102705.75
2023-05-19T10:18:23.122Z,102696.69
2023-05-19T10:20:50.307Z,102709.38
2023-05-19T10:23:22.922Z,102695.94
2023-05-19T10:25:53.571Z,102697.50
2023-05-19T10:28:23.653Z,102695.91
2023-05-19T10:30:53.113Z,102695.97
2023-05-19T10:33:24.589Z,102690.19
2023-05-19T10:36:10.892Z,102683.78
2023-05-19T10:39:16.657Z,102687.84
2023-05-19T10:41:51.811Z,102674.94
2023-05-19T10:44:28.734Z,102682.47
2023-05-19T10:46:56.733Z,102675.28
2023-05-19T10:49:24.106Z,102676.75
2023-05-19T10:51:52.351Z,102677.06
2023-05-19T10:54:40.763Z,102677.63
2023-05-19T10:57:08.371Z,102678.16
2023-05-19T10:59:37.800Z,102679.47
2023-05-19T11:02:05.427Z,102675.25
2023-05-19T11:04:51.815Z,102674.78
2023-05-19T11:07:20.517Z,102670.56
2023-05-19T11:09:56.631Z,102674.94
2023-05-19T11:12:25.363Z,102664.56
2023-05-19T11:14:55.574Z,102663.88
2023-05-19T11:17:25.126Z,102654.59
2023-05-19T11:19:58.741Z,102665.38
2023-05-19T11:22:28.050Z,102663.16
2023-05-19T11:24:55.427Z,102661.13
2023-05-19T11:27:35.798Z,102665.81
2023-05-19T11:30:11.770Z,102655.63
2023-05-19T11:32:44.342Z,102654.03
2023-05-19T11:35:11.280Z,102656.19
2023-05-19T11:37:37.891Z,102652.63
2023-05-19T11:40:08.348Z,102649.41
2023-05-19T11:42:36.162Z,102646.56
2023-05-19T11:45:04.033Z,102646.78
2023-05-19T11:47:42.133Z,102635.69
2023-05-19T11:50:20.285Z,102642.03
2023-05-19T11:52:47.559Z,102633.50
2023-05-19T11:55:18.204Z,102641.09
2023-05-19T11:58:06.020Z,102626.25
2023-05-19T12:00:40.011Z,102632.22
2023-05-19T12:03:09.139Z,102634.13
2023-05-19T12:05:41.805Z,102634.59
2023-05-19T12:08:10.525Z,102635.47
2023-05-19T12:10:38.643Z,102633.16
2023-05-19T12:13:09.030Z,102643.56
2023-05-19T12:15:36.085Z,102638.72
2023-05-19T12:18:03.374Z,102636.53
2023-05-19T12:20:32.655Z,102637.53
2023-05-19T12:23:00.678Z,102638.34
2023-05-19T12:25:28.864Z,102636.16
2023-05-19T12:27:59.905Z,102633.81
2023-05-19T12:30:28.749Z,102622.72
2023-05-19T12:32:57.741Z,102620.09
2023-05-19T12:35:29.011Z,102622.91
2023-05-19T12:37:55.600Z,102622.72
2023-05-19T12:40:22.353Z,102615.66
2023-05-19T12:42:51.872Z,102614.84
2023-05-19T12:45:21.474Z,102608.81
2023-05-19T12:47:49.221Z,102598.66
2023-05-19T12:50:16.270Z,102613.16
2023-05-19T12:52:48.129Z,102606.31
2023-05-19T12:55:16.698Z,102604.78
2023-05-19T12:58:00.043Z,102599.28
2023-05-19T13:00:32.520Z,102596.13
2023-05-19T13:03:07.753Z,102601.28
2023-05-19T13:05:37.938Z,102596.53
2023-05-19T13:08:09.154Z,102591.22
2023-05-19T13:10:39.899Z,102594.72
2023-05-19T13:13:07.632Z,102589.84
2023-05-19T13:15:41.420Z,102582.84
2023-05-19T13:18:12.026Z,102591.06
2023-05-19T13:20:41.114Z,102597.28
2023-05-19T13:23:07.762Z,102596.63
2023-05-19T13:25:34.520Z,102588.94
2023-05-19T13:28:03.932Z,102585.25
2023-05-19T13:30:30.805Z,102585.75
2023-05-19T13:32:57.399Z,102581.00
2023-05-19T13:35:24.089Z,102572.81
2023-05-19T13:37:51.039Z,102569.16
2023-05-19T13:40:19.235Z,102570.56
2023-05-19T13:42:51.562Z,102565.41
2023-05-19T13:45:18.428Z,102569.88
2023-05-19T13:47:45.132Z,102561.94
2023-05-19T13:50:12.464Z,102563.38
2023-05-19T13:52:39.165Z,102550.09
2023-05-19T13:55:07.114Z,102558.22
2023-05-19T13:57:34.083Z,102558.59
2023-05-19T14:00:03.876Z,102562.97
2023-05-19T14:02:31.063Z,102555.13
2023-05-19T14:04:57.904Z,102554.41
2023-05-19T14:07:25.463Z,102551.84
2023-05-19T14:09:52.490Z,102557.38
2023-05-19T14:12:19.290Z,102551.97
2023-05-19T14:14:48.967Z,102552.00
2023-05-19T14:17:15.721Z,102553.63
2023-05-19T14:20:04.547Z,102558.09
2023-05-19T14:22:31.063Z,102552.25
2023-05-19T14:24:57.682Z,102539.81
2023-05-19T14:27:25.394Z,102535.22
2023-05-19T14:29:51.848Z,102539.44
2023-05-19T14:32:18.778Z,102532.44
2023-05-19T14:34:45.434Z,102533.78
2023-05-19T14:37:12.385Z,102538.47
2023-05-19T14:39:38.853Z,102531.00
2023-05-19T14:42:05.653Z,102528.59
2023-05-19T14:44:34.976Z,102526.78
2023-05-19T14:47:04.132Z,102522.03
2023-05-19T14:49:30.687Z,102528.53
2023-05-19T14:51:57.156Z,102523.69
2023-05-19T14:54:23.737Z,102523.56
2023-05-19T14:56:50.262Z,102525.06
2023-05-19T14:59:16.676Z,102522.31
2023-05-19T15:01:44.600Z,102517.59
2023-05-19T15:04:11.311Z,102514.38
2023-05-19T15:06:37.862Z,102516.47
2023-05-19T15:09:04.421Z,102519.72
2023-05-19T15:11:31.093Z,102520.25
2023-05-19T15:13:57.745Z,102523.31
2023-05-19T15:16:24.355Z,102515.94
2023-05-19T15:18:51.748Z,102515.28
2023-05-19T15:21:18.503Z,102502.66
2023-05-19T15:23:45.221Z,102504.50
2023-05-19T15:26:11.909Z,102502.38
2023-05-19T15:28:38.394Z,102505.44
2023-05-19T15:31:04.907Z,102509.09
2023-05-19T15:33:31.491Z,102507.69
2023-05-19T15:35:57.988Z,102512.25
2023-05-19T15:38:24.559Z,102506.38
2023-05-19T15:40:51.113Z,102504.47
2023-05-19T15:43:17.662Z,102499.63
2023-05-19T15:45:44.219Z,102497.41
2023-05-19T15:48:11.431Z,102497.66
2023-05-19T15:50:38.309Z,102496.59
2023-05-19T15:53:06.839Z,102494.44
2023-05-19T15:55:33.339Z,102481.75
2023-05-19T15:57:59.908Z,102489.84
2023-05-19T16:00:26.553Z,102490.16
2023-05-19T16:02:53.096Z,102480.28
2023-05-19T16:05:22.083Z,102487.72
2023-05-19T16:07:48.684Z,102484.63
2023-05-19T16:10:15.201Z,102491.91
2023-05-19T16:12:41.994Z,102486.03
2023-05-19T16:15:08.964Z,102483.41
2023-05-19T16:17:35.508Z,102474.63
2023-05-19T16:20:02.021Z,102476.69
2023-05-19T16:22:30.353Z,102467.13
2023-05-19T16:24:56.880Z,102455.03
2023-05-19T16:27:23.413Z,102467.81
2023-05-19T16:29:50.061Z,102463.69
2023-05-19T16:32:16.646Z,102462.28
2023-05-19T16:34:43.165Z,102465.03
2023-05-19T16:37:09.688Z,102453.19
2023-05-19T16:39:37.319Z,102463.53
2023-05-19T16:42:04.679Z,102460.50
2023-05-19T16:44:34.095Z,102474.47
2023-05-19T16:47:00.926Z,102467.94
2023-05-19T16:49:27.504Z,102469.25
2023-05-19T16:51:54.235Z,102470.69
2023-05-19T16:54:21.303Z,102473.88
2023-05-19T16:56:47.835Z,102472.09
2023-05-19T16:59:14.639Z,102473.03
2023-05-19T17:01:41.372Z,102465.81
2023-05-19T17:04:08.232Z,102462.50
2023-05-19T17:06:38.145Z,102463.84
2023-05-19T17:09:04.658Z,102464.53
2023-05-19T17:11:31.534Z,102463.84
2023-05-19T17:13:59.977Z,102473.81
2023-05-19T17:16:26.832Z,102475.41
2023-05-19T17:18:53.499Z,102472.56
2023-05-19T17:21:20.189Z,102473.13
2023-05-19T17:23:46.806Z,102473.41
2023-05-19T17:26:13.582Z,102475.78
2023-05-19T17:28:40.059Z,102472.34
2023-05-19T17:31:11.252Z,102475.34
2023-05-19T17:33:38.221Z,102476.47
2023-05-19T17:36:05.395Z,102467.22
2023-05-19T17:38:32.281Z,102473.09
2023-05-19T17:40:59.515Z,102480.16
2023-05-19T17:43:26.676Z,102474.78
2023-05-19T17:45:53.663Z,102478.53
2023-05-19T17:48:20.490Z,102469.25
2023-05-19T17:50:48.172Z,102469.81
2023-05-19T17:53:16.022Z,102476.50
2023-05-19T17:55:49.890Z,102480.47
2023-05-19T17:58:17.285Z,102472.28
2023-05-19T18:00:43.958Z,102479.00
2023-05-19T18:03:12.056Z,102485.53
2023-05-19T18:05:40.117Z,102478.38
2023-05-19T18:08:09.341Z,102484.16
2023-05-19T18:10:37.808Z,102481.22
2023-05-19T18:13:05.097Z,102474.22
2023-05-19T18:15:31.755Z,102485.38
2023-05-19T18:17:58.343Z,102474.13
2023-05-19T18:20:25.011Z,102485.38
2023-05-19T18:22:51.589Z,102489.31
2023-05-19T18:25:20.024Z,102489.56
2023-05-19T18:27:47.456Z,102493.22
2023-05-19T18:30:14.082Z,102488.56
2023-05-19T18:32:40.827Z,102491.66
2023-05-19T18:35:08.386Z,102489.78
2023-05-19T18:37:35.038Z,102497.63
2023-05-19T18:40:01.632Z,102493.81
2023-05-19T18:42:28.157Z,102493.66
2023-05-19T18:44:54.675Z,102504.41
2023-05-19T18:47:22.813Z,102502.56
2023-05-19T18:49:50.061Z,102505.88
2023-05-19T18:52:17.097Z,102509.81
2023-05-19T18:54:45.909Z,102508.78
2023-05-19T18:57:12.850Z,102504.13
2023-05-19T18:59:39.402Z,102509.97
2023-05-19T19:02:06.568Z,102503.63
2023-05-19T19:04:33.549Z,102513.25
2023-05-19T19:07:00.128Z,102515.94
2023-05-19T19:09:26.656Z,102515.59
2023-05-19T19:11:53.084Z,102516.50
2023-05-19T19:14:19.913Z,102517.03
2023-05-19T19:16:46.527Z,102515.72
2023-05-19T19:19:13.156Z,102519.63
2023-05-19T19:21:39.821Z,102513.09
2023-05-19T19:24:06.617Z,102524.03
2023-05-19T19:26:33.178Z,102528.16
2023-05-19T19:28:59.700Z,102530.59
2023-05-19T19:31:31.540Z,102527.59
2023-05-19T19:34:00.863Z,102536.19
2023-05-19T19:36:27.415Z,102532.34
2023-05-19T19:38:54.144Z,102536.47
2023-05-19T19:41:21.519Z,102532.75
2023-05-19T19:43:48.124Z,102544.59
2023-05-19T19:46:14.733Z,102543.25
2023-05-19T19:48:41.454Z,102543.88
2023-05-19T19:51:08.049Z,102553.41
2023-05-19T19:53:34.564Z,102557.75
2023-05-19T19:56:02.543Z,102550.50
2023-05-19T19:58:29.911Z,102559.06
2023-05-19T20:01:00.615Z,102566.66
2023-05-19T20:03:27.838Z,102561.63
2023-05-19T20:05:55.945Z,102568.97
2023-05-19T20:08:29.381Z,102569.53
2023-05-19T20:10:56.219Z,102562.16
2023-05-19T20:13:24.698Z,102566.88
2023-05-19T20:15:51.531Z,102564.91
2023-05-19T20:18:18.128Z,102565.25
2023-05-19T20:20:44.727Z,102568.69
2023-05-19T20:23:12.654Z,102569.28
2023-05-19T20:25:54.811Z,102575.56
2023-05-19T20:28:29.271Z,102579.31
2023-05-19T20:30:55.989Z,102577.72
2023-05-19T20:33:22.574Z,102577.59
2023-05-19T20:35:49.131Z,102579.94
2023-05-19T20:38:15.653Z,102583.66
2023-05-19T20:40:42.656Z,102580.03
2023-05-19T20:43:12.267Z,102597.16
2023-05-19T20:45:38.858Z,102591.22
2023-05-19T20:48:06.044Z,102602.00
2023-05-19T20:50:32.992Z,102594.13
2023-05-19T20:53:00.994Z,102594.34
2023-05-19T20:55:27.621Z,102595.75
2023-05-19T20:57:54.326Z,102593.94
2023-05-19T21:00:21.033Z,102596.59
2023-05-19T21:02:47.790Z,102593.19
2023-05-19T21:05:14.337Z,102596.81
2023-05-19T21:07:41.221Z,102598.84
2023-05-19T21:10:08.136Z,102591.09
2023-05-19T21:12:35.262Z,102599.16
2023-05-19T21:15:02.161Z,102596.72
2023-05-19T21:17:28.880Z,102602.16
2023-05-19T21:19:59.367Z,102604.81
2023-05-19T21:22:27.011Z,102601.53
2023-05-19T21:24:56.423Z,102605.50
2023-05-19T21:27:23.111Z,102615.59
2023-05-19T21:29:54.254Z,102619.53
2023-05-19T21:32:24.024Z,102611.16
2023-05-19T21:34:50.653Z,102620.19
2023-05-19T21:37:19.745Z,102618.69
2023-05-19T21:39:46.460Z,102614.44
2023-05-19T21:42:16.152Z,102617.44
2023-05-19T21:44:42.715Z,102621.06
2023-05-19T21:47:09.272Z,102626.25
2023-05-19T21:49:35.800Z,102627.44
2023-05-19T21:52:02.335Z,102629.44
2023-05-19T21:54:29.085Z,102625.28
2023-05-19T21:56:55.596Z,102630.84
2023-05-19T21:59:24.829Z,102627.44
2023-05-19T22:01:51.443Z,102631.06
2023-05-19T22:04:18.901Z,102630.41
2023-05-19T22:06:45.678Z,102627.31
2023-05-19T22:09:12.800Z,102620.53
2023-05-19T22:11:39.725Z,102631.16
2023-05-19T22:14:06.478Z,102631.25
2023-05-19T22:16:33.072Z,102637.44
2023-05-19T22:18:59.776Z,102629.66
2023-05-19T22:21:26.349Z,102626.25
2023-05-19T22:23:52.889Z,102625.63
2023-05-19T22:26:22.357Z,102619.56
2023-05-19T22:28:50.152Z,102630.50
2023-05-19T22:31:17.032Z,102630.50
2023-05-19T22:33:43.711Z,102632.63
2023-05-19T22:36:11.151Z,102636.44
2023-05-19T22:38:37.702Z,102635.69
2023-05-19T22:41:04.303Z,102629.09
2023-05-19T22:43:31.172Z,102628.56
2023-05-19T22:45:57.778Z,102628.97
2023-05-19T22:48:26.560Z,102631.00
2023-05-19T22:50:53.181Z,102625.41
2023-05-19T22:53:19.832Z,102625.06
2023-05-19T22:55:46.694Z,102634.38
2023-05-19T22:58:13.191Z,102629.47
2023-05-19T23:00:39.696Z,102629.69
2023-05-19T23:03:08.092Z,102630.06
2023-05-19T23:05:35.268Z,102635.66
2023-05-19T23:08:02.169Z,102630.88
2023-05-19T23:10:28.879Z,102636.38
2023-05-19T23:12:55.364Z,102628.78
2023-05-19T23:15:21.919Z,102632.28
2023-05-19T23:17:48.646Z,102629.13
2023-05-19T23:20:15.286Z,102627.50
2023-05-19T23:22:41.875Z,102618.72
2023-05-19T23:25:08.472Z,102622.59
2023-05-19T23:27:35.803Z,102630.38
2023-05-19T23:30:03.466Z,102628.94
2023-05-19T23:32:30.103Z,102625.34
2023-05-19T23:34:56.636Z,102620.38
2023-05-19T23:37:23.275Z,102619.72
2023-05-19T23:39:49.889Z,102626.22
2023-05-19T23:42:16.538Z,102616.59
2023-05-19T23:44:43.136Z,102621.13
2023-05-19T23:47:09.812Z,102624.06
2023-05-19T23:49:36.356Z,102626.59
2023-05-19T23:52:02.987Z,102618.78
2023-05-19T23:54:30.288Z,102625.13
2023-05-19T23:56:56.983Z,102615.84
2023-05-19T23:59:23.516Z,102623.78
